createdAt,value
2023-04-26T00:01:40.241Z,4.80
2023-04-26T00:05:43.558Z,4.73
2023-04-26T00:09:48.367Z,5.47
2023-04-26T00:13:51.535Z,5.23
2023-04-26T00:17:59.076Z,5.10
2023-04-26T00:22:03.055Z,4.83
2023-04-26T00:26:06.368Z,4.73
2023-04-26T00:30:11.577Z,5.20
2023-04-26T00:34:18.764Z,5.03
2023-04-26T00:38:21.850Z,5.20
2023-04-26T00:42:34.438Z,5.27
2023-04-26T00:46:37.600Z,5.67
2023-04-26T00:50:44.476Z,5.87
2023-04-26T00:54:48.238Z,5.20
2023-04-26T00:58:54.380Z,5.63
2023-04-26T01:02:57.985Z,5.63
2023-04-26T01:07:03.307Z,6.10
2023-04-26T01:11:06.514Z,5.60
2023-04-26T01:15:11.296Z,5.47
2023-04-26T01:19:15.327Z,5.97
2023-04-26T01:23:22.301Z,6.13
2023-04-26T01:27:28.925Z,5.70
2023-04-26T01:31:32.028Z,5.37
2023-04-26T01:35:36.359Z,5.70
2023-04-26T01:40:01.245Z,5.73
2023-04-26T01:44:06.647Z,6.27
2023-04-26T01:48:10.574Z,5.87
2023-04-26T01:52:13.578Z,6.27
2023-04-26T01:56:20.780Z,6.10
2023-04-26T02:00:25.847Z,5.53
2023-04-26T02:04:30.970Z,6.00
2023-04-26T02:08:37.201Z,6.20
2023-04-26T02:12:42.154Z,6.00
2023-04-26T02:16:45.325Z,6.10
2023-04-26T02:20:48.531Z,6.50
2023-04-26T02:24:51.856Z,6.90
2023-04-26T02:28:56.221Z,6.47
2023-04-26T02:32:59.691Z,5.60
2023-04-26T02:37:03.166Z,6.13
2023-04-26T02:41:06.621Z,6.37
2023-04-26T02:45:16.926Z,6.50
2023-04-26T02:49:19.949Z,6.30
2023-04-26T02:53:24.592Z,5.80
2023-04-26T02:57:29.299Z,5.97
2023-04-26T03:01:33.798Z,6.37
2023-04-26T03:05:36.838Z,6.40
2023-04-26T03:09:45.094Z,6.67
2023-04-26T03:13:48.296Z,5.97
2023-04-26T03:17:52.937Z,6.43
2023-04-26T03:21:58.415Z,6.70
2023-04-26T03:26:04.724Z,7.27
2023-04-26T03:30:09.133Z,7.20
2023-04-26T03:34:15.091Z,7.90
2023-04-26T03:38:18.761Z,8.13
2023-04-26T03:42:22.385Z,7.17
2023-04-26T03:46:27.886Z,7.17
2023-04-26T03:50:32.696Z,7.20
2023-04-26T03:54:36.240Z,6.47
2023-04-26T03:58:39.552Z,6.33
2023-04-26T04:02:44.672Z,6.37
2023-04-26T04:06:49.308Z,6.90
2023-04-26T04:10:52.536Z,7.10
2023-04-26T04:14:55.913Z,5.97
2023-04-26T04:19:01.900Z,6.20
2023-04-26T04:23:07.908Z,6.60
2023-04-26T04:27:11.755Z,5.93
2023-04-26T04:31:15.306Z,6.03
2023-04-26T04:35:18.953Z,5.53
2023-04-26T04:39:38.356Z,5.67
2023-04-26T04:43:42.650Z,6.03
2023-04-26T04:47:48.637Z,6.90
2023-04-26T04:51:54.411Z,6.57
2023-04-26T04:55:59.853Z,6.43
2023-04-26T05:00:07.323Z,6.60
2023-04-26T05:04:10.807Z,7.53
2023-04-26T05:08:15.940Z,7.73
2023-04-26T05:12:29.460Z,7.43
2023-04-26T05:16:33.090Z,8.10
2023-04-26T05:20:36.239Z,7.07
2023-04-26T05:24:43.461Z,7.00
2023-04-26T05:28:47.909Z,7.50
2023-04-26T05:32:51.692Z,7.70
2023-04-26T05:36:55.069Z,7.53
2023-04-26T05:41:03.523Z,7.23
2023-04-26T05:45:10.276Z,7.43
2023-04-26T05:49:13.257Z,7.83
2023-04-26T05:53:16.634Z,7.43
2023-04-26T05:57:24.190Z,6.60
2023-04-26T06:01:32.086Z,5.97
2023-04-26T06:05:38.289Z,6.80
2023-04-26T06:09:41.446Z,6.50
2023-04-26T06:13:44.445Z,6.17
2023-04-26T06:17:51.516Z,5.83
2023-04-26T06:21:59.157Z,5.60
2023-04-26T06:26:02.268Z,5.47
2023-04-26T06:30:08.906Z,6.00
2023-04-26T06:34:14.378Z,5.10
2023-04-26T06:38:21.796Z,6.60
2023-04-26T06:42:27.955Z,5.27
2023-04-26T06:46:34.197Z,4.83
2023-04-26T06:50:40.425Z,4.93
2023-04-26T06:54:56.001Z,4.00
2023-04-26T06:59:01.584Z,4.53
2023-04-26T07:03:04.877Z,4.00
2023-04-26T07:07:13.249Z,3.40
2023-04-26T07:11:18.652Z,3.73
2023-04-26T07:15:23.934Z,3.27
2023-04-26T07:19:28.311Z,3.20
2023-04-26T07:23:34.253Z,3.50
2023-04-26T07:28:06.236Z,2.77
2023-04-26T07:32:18.101Z,2.88
2023-04-26T07:36:23.077Z,2.40
2023-04-26T07:40:32.452Z,2.60
2023-04-26T07:44:35.501Z,2.60
2023-04-26T07:48:38.794Z,2.30
2023-04-26T07:52:43.389Z,3.10
2023-04-26T07:56:47.906Z,2.58
2023-04-26T08:00:51.084Z,2.90
2023-04-26T08:04:58.310Z,2.72
2023-04-26T08:09:06.455Z,2.60
2023-04-26T08:13:15.037Z,3.00
2023-04-26T08:17:18.074Z,2.58
2023-04-26T08:21:21.067Z,3.10
2023-04-26T08:25:24.322Z,2.75
2023-04-26T08:29:32.371Z,2.30
2023-04-26T08:33:38.324Z,3.03
2023-04-26T08:37:41.419Z,3.13
2023-04-26T08:41:45.896Z,2.85
2023-04-26T08:45:50.962Z,3.40
2023-04-26T08:49:59.635Z,2.55
2023-04-26T08:54:05.010Z,2.90
2023-04-26T08:58:09.849Z,3.40
2023-04-26T09:02:18.715Z,3.33
2023-04-26T09:06:25.596Z,3.05
2023-04-26T09:10:36.462Z,2.90
2023-04-26T09:14:40.330Z,2.83
2023-04-26T09:18:54.284Z,2.97
2023-04-26T09:23:06.707Z,2.95
2023-04-26T09:27:12.076Z,2.58
2023-04-26T09:31:39.023Z,2.65
2023-04-26T09:35:49.806Z,2.40
2023-04-26T09:39:54.758Z,2.40
2023-04-26T09:43:58.076Z,2.88
2023-04-26T09:48:22.134Z,2.30
2023-04-26T09:52:28.996Z,2.47
2023-04-26T09:56:33.438Z,2.50
2023-04-26T10:00:37.797Z,2.50
2023-04-26T10:04:40.929Z,2.70
2023-04-26T10:08:48.289Z,2.50
2023-04-26T10:12:51.311Z,2.67
2023-04-26T10:16:56.069Z,2.80
2023-04-26T10:21:01.942Z,2.50
2023-04-26T10:25:10.269Z,2.70
2023-04-26T10:29:13.305Z,2.53
2023-04-26T10:33:16.654Z,2.35
2023-04-26T10:37:20.379Z,2.95
2023-04-26T10:41:40.000Z,2.45
2023-04-26T10:45:44.357Z,2.45
2023-04-26T10:49:50.118Z,2.45
2023-04-26T10:54:07.232Z,2.22
2023-04-26T10:58:31.457Z,2.47
2023-04-26T11:02:49.774Z,2.83
2023-04-26T11:06:55.786Z,2.70
2023-04-26T11:11:11.693Z,3.03
2023-04-26T11:15:17.219Z,3.10
2023-04-26T11:19:22.270Z,3.38
2023-04-26T11:23:29.742Z,3.53
2023-04-26T11:27:34.066Z,2.88
2023-04-26T11:31:38.806Z,2.67
2023-04-26T11:35:47.081Z,2.60
2023-04-26T11:39:52.767Z,2.40
2023-04-26T11:44:00.850Z,2.42
2023-04-26T11:48:07.054Z,2.60
2023-04-26T11:52:12.952Z,2.20
2023-04-26T11:56:24.539Z,2.47
2023-04-26T12:00:30.936Z,2.50
2023-04-26T12:04:35.709Z,2.63
2023-04-26T12:08:38.806Z,2.47
2023-04-26T12:12:48.290Z,2.35
2023-04-26T12:16:54.417Z,2.40
2023-04-26T12:21:03.701Z,2.42
2023-04-26T12:25:08.924Z,2.42
2023-04-26T12:29:12.205Z,3.03
2023-04-26T12:33:17.621Z,2.60
2023-04-26T12:37:22.457Z,2.55
2023-04-26T12:41:25.760Z,2.38
2023-04-26T12:45:33.413Z,2.60
2023-04-26T12:49:36.977Z,2.85
2023-04-26T12:53:44.979Z,2.70
2023-04-26T12:57:48.309Z,2.40
2023-04-26T13:01:54.286Z,2.78
2023-04-26T13:05:59.065Z,2.28
2023-04-26T13:10:04.668Z,2.20
2023-04-26T13:14:10.679Z,2.33
2023-04-26T13:18:16.052Z,2.47
2023-04-26T13:22:19.912Z,2.92
2023-04-26T13:26:27.674Z,2.67
2023-04-26T13:30:33.165Z,2.45
2023-04-26T13:34:36.780Z,2.60
2023-04-26T13:38:42.608Z,2.60
2023-04-26T13:42:47.915Z,2.80
2023-04-26T13:46:51.146Z,2.47
2023-04-26T13:50:56.324Z,2.65
2023-04-26T13:55:01.036Z,2.67
2023-04-26T13:59:08.703Z,2.67
2023-04-26T14:03:11.884Z,2.70
2023-04-26T14:07:14.959Z,2.53
2023-04-26T14:11:19.926Z,2.97
2023-04-26T14:15:24.805Z,2.40
2023-04-26T14:19:33.215Z,2.75
2023-04-26T14:23:43.796Z,2.67
2023-04-26T14:27:47.065Z,2.70
2023-04-26T14:31:51.698Z,2.72
2023-04-26T14:35:55.127Z,2.95
2023-04-26T14:40:00.821Z,2.42
2023-04-26T14:44:06.026Z,2.50
2023-04-26T14:48:10.996Z,2.85
2023-04-26T14:52:20.038Z,2.38
2023-04-26T14:56:23.845Z,2.53
2023-04-26T15:00:26.947Z,2.25
2023-04-26T15:04:31.554Z,2.80
2023-04-26T15:08:34.845Z,2.88
2023-04-26T15:12:38.058Z,2.50
2023-04-26T15:16:41.107Z,2.20
2023-04-26T15:20:49.631Z,2.65
2023-04-26T15:24:52.816Z,3.08
2023-04-26T15:28:56.351Z,2.80
2023-04-26T15:33:03.515Z,2.70
2023-04-26T15:37:09.932Z,2.47
2023-04-26T15:41:13.286Z,2.83
2023-04-26T15:45:16.747Z,3.10
2023-04-26T15:49:20.024Z,2.63
2023-04-26T15:53:24.553Z,3.13
2023-04-26T15:57:27.603Z,2.40
2023-04-26T16:01:30.714Z,2.55
2023-04-26T16:05:33.865Z,3.17
2023-04-26T16:09:41.100Z,2.72
2023-04-26T16:13:44.644Z,2.90
2023-04-26T16:17:47.798Z,2.60
2023-04-26T16:21:55.396Z,2.80
2023-04-26T16:26:00.237Z,2.60
2023-04-26T16:30:04.621Z,2.70
2023-04-26T16:34:10.091Z,2.70
2023-04-26T16:38:18.477Z,3.33
2023-04-26T16:42:23.074Z,3.45
2023-04-26T16:46:27.135Z,3.58
2023-04-26T16:50:31.452Z,2.70
2023-04-26T16:54:34.534Z,2.60
2023-04-26T16:58:39.436Z,2.67
2023-04-26T17:02:45.501Z,2.95
2023-04-26T17:06:48.655Z,2.88
2023-04-26T17:10:51.937Z,2.83
2023-04-26T17:14:57.369Z,3.15
2023-04-26T17:19:04.145Z,3.00
2023-04-26T17:23:08.635Z,2.92
2023-04-26T17:27:11.734Z,2.28
2023-04-26T17:31:17.212Z,3.10
2023-04-26T17:35:20.345Z,2.83
2023-04-26T17:39:23.895Z,2.53
2023-04-26T17:43:28.868Z,2.67
2023-04-26T17:47:37.329Z,2.47
2023-04-26T17:51:40.582Z,2.50
2023-04-26T17:55:43.702Z,3.10
2023-04-26T17:59:51.315Z,2.70
2023-04-26T18:03:58.881Z,3.20
2023-04-26T18:08:04.900Z,3.85
2023-04-26T18:12:08.237Z,2.90
2023-04-26T18:16:12.601Z,2.65
2023-04-26T18:20:17.298Z,2.38
2023-04-26T18:24:21.181Z,2.63
2023-04-26T18:28:26.781Z,2.70
2023-04-26T18:32:31.439Z,2.60
2023-04-26T18:36:36.093Z,3.05
2023-04-26T18:40:44.512Z,2.90
2023-04-26T18:44:47.716Z,2.83
2023-04-26T18:48:51.279Z,3.50
2023-04-26T18:52:55.993Z,3.45
2023-04-26T18:57:03.316Z,2.95
2023-04-26T19:01:06.704Z,3.25
2023-04-26T19:05:12.042Z,3.60
2023-04-26T19:09:17.974Z,5.20
2023-04-26T19:13:21.549Z,4.30
2023-04-26T19:17:25.605Z,4.53
2023-04-26T19:21:31.561Z,5.38
2023-04-26T19:25:38.761Z,6.57
2023-04-26T19:29:46.312Z,7.87
2023-04-26T19:33:54.844Z,5.32
2023-04-26T19:38:01.951Z,4.18
2023-04-26T19:42:06.629Z,3.57
2023-04-26T19:46:15.044Z,3.27
2023-04-26T19:50:18.318Z,5.00
2023-04-26T19:54:21.335Z,3.70
2023-04-26T19:58:28.616Z,2.90
2023-04-26T20:02:34.027Z,3.47
2023-04-26T20:06:37.145Z,3.40
2023-04-26T20:10:41.752Z,2.70
2023-04-26T20:14:46.651Z,2.73
2023-04-26T20:18:53.239Z,3.00
2023-04-26T20:22:56.332Z,3.30
2023-04-26T20:26:59.334Z,2.83
2023-04-26T20:31:04.060Z,3.03
2023-04-26T20:35:08.428Z,2.97
2023-04-26T20:39:14.395Z,3.30
2023-04-26T20:43:17.659Z,2.90
2023-04-26T20:47:24.868Z,3.00
2023-04-26T20:51:31.438Z,3.33
2023-04-26T20:55:42.855Z,3.27
2023-04-26T20:59:46.346Z,3.37
2023-04-26T21:03:51.191Z,3.00
2023-04-26T21:07:54.390Z,3.00
2023-04-26T21:11:57.497Z,3.30
2023-04-26T21:16:02.347Z,3.23
2023-04-26T21:20:08.328Z,3.57
2023-04-26T21:24:13.113Z,3.20
2023-04-26T21:28:19.371Z,3.33
2023-04-26T21:32:22.385Z,3.67
2023-04-26T21:36:37.312Z,3.53
2023-04-26T21:40:42.516Z,3.47
2023-04-26T21:44:46.793Z,3.63
2023-04-26T21:48:49.804Z,3.40
2023-04-26T21:52:55.657Z,3.30
2023-04-26T21:56:58.913Z,3.03
2023-04-26T22:01:08.577Z,3.53
2023-04-26T22:05:11.755Z,3.40
2023-04-26T22:09:15.890Z,3.43
2023-04-26T22:13:20.954Z,3.63
2023-04-26T22:17:23.859Z,3.60
2023-04-26T22:21:28.437Z,4.30
2023-04-26T22:25:33.816Z,3.97
2023-04-26T22:29:36.606Z,4.20
2023-04-26T22:33:43.574Z,4.10
2023-04-26T22:37:49.622Z,4.13
2023-04-26T22:41:53.979Z,4.23
2023-04-26T22:45:56.781Z,4.17
2023-04-26T22:50:05.036Z,4.43
2023-04-26T22:54:09.647Z,4.10
2023-04-26T22:58:18.362Z,3.90
2023-04-26T23:02:23.765Z,4.10
2023-04-26T23:06:27.024Z,4.10
2023-04-26T23:10:29.818Z,3.83
2023-04-26T23:14:35.109Z,4.30
2023-04-26T23:18:38.442Z,3.77
2023-04-26T23:22:44.476Z,4.20
2023-04-26T23:26:52.301Z,3.80
2023-04-26T23:30:56.510Z,3.87
2023-04-26T23:34:59.798Z,3.87
2023-04-26T23:39:02.618Z,4.10
2023-04-26T23:43:06.330Z,4.20
2023-04-26T23:47:13.459Z,3.70
2023-04-26T23:51:16.285Z,4.17
2023-04-26T23:55:21.051Z,4.20
2023-04-26T23:59:24.216Z,4.10
